createdAt,value
2023-04-22T00:00:26.134Z,12.07
2023-04-22T00:02:29.698Z,12.08
2023-04-22T00:04:31.837Z,11.99
2023-04-22T00:06:33.736Z,11.98
2023-04-22T00:08:35.605Z,12.04
2023-04-22T00:10:37.750Z,11.96
2023-04-22T00:12:39.703Z,11.97
2023-04-22T00:14:41.524Z,11.99
2023-04-22T00:16:43.352Z,11.99
2023-04-22T00:18:45.532Z,11.98
2023-04-22T00:20:47.850Z,11.97
2023-04-22T00:22:49.876Z,11.89
2023-04-22T00:24:51.807Z,11.74
2023-04-22T00:26:53.763Z,11.70
2023-04-22T00:28:55.548Z,11.76
2023-04-22T00:30:58.884Z,11.68
2023-04-22T00:33:00.927Z,11.65
2023-04-22T00:35:02.854Z,11.67
2023-04-22T00:37:04.627Z,11.65
2023-04-22T00:39:06.674Z,11.67
2023-04-22T00:41:08.577Z,11.65
2023-04-22T00:43:11.766Z,11.67
2023-04-22T00:45:18.158Z,11.69
2023-04-22T00:47:21.017Z,11.68
2023-04-22T00:49:23.530Z,11.68
2023-04-22T00:51:26.131Z,11.69
2023-04-22T00:53:27.927Z,11.68
2023-04-22T00:55:30.102Z,11.67
2023-04-22T00:57:33.522Z,11.60
2023-04-22T00:59:35.526Z,11.61
2023-04-22T01:01:37.640Z,11.57
2023-04-22T01:03:41.069Z,11.42
2023-04-22T01:05:43.780Z,11.41
2023-04-22T01:07:45.604Z,11.43
2023-04-22T01:09:47.847Z,11.40
2023-04-22T01:11:52.098Z,11.41
2023-04-22T01:13:54.250Z,11.39
2023-04-22T01:15:56.535Z,11.32
2023-04-22T01:17:59.352Z,11.32
2023-04-22T01:20:05.553Z,11.34
2023-04-22T01:22:08.808Z,11.30
2023-04-22T01:24:10.843Z,11.33
2023-04-22T01:26:12.706Z,11.28
2023-04-22T01:28:15.749Z,11.30
2023-04-22T01:30:17.794Z,11.32
2023-04-22T01:32:20.096Z,11.29
2023-04-22T01:34:22.755Z,11.26
2023-04-22T01:36:24.649Z,11.23
2023-04-22T01:38:26.643Z,11.26
2023-04-22T01:40:29.936Z,11.26
2023-04-22T01:42:32.448Z,11.24
2023-04-22T01:44:34.170Z,11.25
2023-04-22T01:46:35.943Z,11.23
2023-04-22T01:48:39.266Z,11.24
2023-04-22T01:50:41.107Z,11.19
2023-04-22T01:52:42.882Z,11.22
2023-04-22T01:54:44.719Z,11.17
2023-04-22T01:56:55.037Z,11.17
2023-04-22T01:58:56.853Z,11.17
2023-04-22T02:00:58.771Z,11.15
2023-04-22T02:03:00.660Z,11.15
2023-04-22T02:05:02.791Z,11.14
2023-04-22T02:07:04.812Z,11.14
2023-04-22T02:09:06.670Z,11.13
2023-04-22T02:11:08.612Z,11.12
2023-04-22T02:13:10.501Z,11.14
2023-04-22T02:15:12.569Z,11.10
2023-04-22T02:17:14.348Z,11.13
2023-04-22T02:19:16.374Z,11.11
2023-04-22T02:21:18.108Z,11.11
2023-04-22T02:23:20.158Z,11.13
2023-04-22T02:25:21.926Z,11.11
2023-04-22T02:27:23.949Z,11.12
2023-04-22T02:29:25.771Z,11.09
2023-04-22T02:31:27.570Z,11.07
2023-04-22T02:33:29.406Z,11.07
2023-04-22T02:35:31.330Z,11.05
2023-04-22T02:37:33.168Z,11.03
2023-04-22T02:39:35.402Z,11.00
2023-04-22T02:41:37.155Z,10.99
2023-04-22T02:43:38.862Z,10.98
2023-04-22T02:45:41.112Z,10.97
2023-04-22T02:47:43.036Z,10.99
2023-04-22T02:49:44.891Z,10.99
2023-04-22T02:51:46.724Z,10.95
2023-04-22T02:53:48.482Z,10.99
2023-04-22T02:55:52.492Z,10.98
2023-04-22T02:57:54.278Z,11.00
2023-04-22T02:59:57.218Z,11.00
2023-04-22T03:01:59.508Z,10.99
2023-04-22T03:04:01.574Z,10.99
2023-04-22T03:06:03.716Z,10.91
2023-04-22T03:08:05.639Z,10.89
2023-04-22T03:10:08.404Z,10.85
2023-04-22T03:12:10.623Z,10.79
2023-04-22T03:14:12.409Z,10.78
2023-04-22T03:16:14.337Z,10.76
2023-04-22T03:18:16.223Z,10.74
2023-04-22T03:20:18.240Z,10.77
2023-04-22T03:22:20.084Z,10.75
2023-04-22T03:24:21.846Z,10.74
2023-04-22T03:26:24.100Z,10.76
2023-04-22T03:28:26.071Z,10.73
2023-04-22T03:30:27.925Z,10.74
2023-04-22T03:32:29.735Z,10.70
2023-04-22T03:34:31.602Z,10.72
2023-04-22T03:36:33.315Z,10.68
2023-04-22T03:38:35.141Z,10.69
2023-04-22T03:40:38.673Z,10.72
2023-04-22T03:42:40.505Z,10.66
2023-04-22T03:44:42.300Z,10.66
2023-04-22T03:46:44.168Z,10.64
2023-04-22T03:48:46.234Z,10.60
2023-04-22T03:50:48.101Z,10.53
2023-04-22T03:52:49.916Z,10.51
2023-04-22T03:54:55.017Z,10.51
2023-04-22T03:56:56.941Z,10.51
2023-04-22T03:58:58.695Z,10.49
2023-04-22T04:01:00.474Z,10.49
2023-04-22T04:03:02.550Z,10.49
2023-04-22T04:05:05.605Z,10.47
2023-04-22T04:07:07.926Z,10.47
2023-04-22T04:09:09.761Z,10.40
2023-04-22T04:11:11.891Z,10.40
2023-04-22T04:13:13.693Z,10.38
2023-04-22T04:15:15.407Z,10.37
2023-04-22T04:17:19.630Z,10.22
2023-04-22T04:19:21.619Z,10.28
2023-04-22T04:21:23.366Z,10.27
2023-04-22T04:23:25.200Z,10.19
2023-04-22T04:25:27.126Z,10.22
2023-04-22T04:27:28.912Z,10.12
2023-04-22T04:29:30.618Z,10.11
2023-04-22T04:31:32.515Z,10.09
2023-04-22T04:33:34.389Z,10.05
2023-04-22T04:35:38.108Z,10.00
2023-04-22T04:37:42.635Z,10.02
2023-04-22T04:39:44.811Z,10.03
2023-04-22T04:41:49.161Z,9.79
2023-04-22T04:43:51.988Z,9.92
2023-04-22T04:45:53.800Z,9.94
2023-04-22T04:47:55.824Z,9.82
2023-04-22T04:49:58.682Z,9.83
2023-04-22T04:52:01.849Z,9.74
2023-04-22T04:54:03.835Z,9.79
2023-04-22T04:56:05.586Z,9.81
2023-04-22T04:58:07.304Z,9.78
2023-04-22T05:00:10.483Z,9.79
2023-04-22T05:02:12.313Z,9.67
2023-04-22T05:04:14.371Z,9.75
2023-04-22T05:06:16.520Z,9.70
2023-04-22T05:08:18.325Z,9.58
2023-04-22T05:10:21.248Z,9.66
2023-04-22T05:12:23.158Z,9.59
2023-04-22T05:14:27.065Z,9.65
2023-04-22T05:16:29.344Z,9.65
2023-04-22T05:18:31.371Z,9.58
2023-04-22T05:20:35.327Z,9.53
2023-04-22T05:22:38.025Z,9.51
2023-04-22T05:24:39.897Z,9.63
2023-04-22T05:26:41.936Z,9.66
2023-04-22T05:28:43.816Z,9.72
2023-04-22T05:30:45.562Z,9.70
2023-04-22T05:32:47.350Z,9.75
2023-04-22T05:34:49.241Z,9.72
2023-04-22T05:36:51.565Z,9.78
2023-04-22T05:38:53.510Z,9.86
2023-04-22T05:40:57.984Z,9.82
2023-04-22T05:42:59.688Z,9.88
2023-04-22T05:45:01.547Z,9.88
2023-04-22T05:47:03.485Z,9.78
2023-04-22T05:49:05.187Z,9.82
2023-04-22T05:51:06.988Z,9.87
2023-04-22T05:53:08.884Z,9.88
2023-04-22T05:55:10.760Z,9.92
2023-04-22T05:57:12.660Z,9.77
2023-04-22T05:59:14.648Z,9.83
2023-04-22T06:01:18.926Z,9.76
2023-04-22T06:03:21.163Z,9.81
2023-04-22T06:05:23.284Z,9.77
2023-04-22T06:07:25.138Z,9.70
2023-04-22T06:09:27.014Z,9.81
2023-04-22T06:11:29.131Z,9.85
2023-04-22T06:13:30.947Z,9.89
2023-04-22T06:15:34.748Z,9.95
2023-04-22T06:17:36.523Z,9.91
2023-04-22T06:19:40.833Z,9.98
2023-04-22T06:21:43.347Z,10.04
2023-04-22T06:23:45.151Z,10.10
2023-04-22T06:25:47.742Z,10.15
2023-04-22T06:27:49.598Z,10.13
2023-04-22T06:29:51.398Z,10.21
2023-04-22T06:31:54.839Z,10.26
2023-04-22T06:33:56.728Z,10.31
2023-04-22T06:35:59.010Z,10.41
2023-04-22T06:38:00.821Z,10.44
2023-04-22T06:40:05.440Z,10.44
2023-04-22T06:42:07.720Z,10.37
2023-04-22T06:44:09.700Z,10.48
2023-04-22T06:46:14.830Z,10.55
2023-04-22T06:48:16.734Z,10.60
2023-04-22T06:50:18.572Z,10.62
2023-04-22T06:52:23.498Z,10.65
2023-04-22T06:54:25.855Z,10.70
2023-04-22T06:56:27.621Z,10.75
2023-04-22T06:58:29.519Z,10.75
2023-04-22T07:00:31.424Z,10.81
2023-04-22T07:02:33.374Z,10.84
2023-04-22T07:04:35.281Z,10.75
2023-04-22T07:06:40.431Z,10.67
2023-04-22T07:08:42.344Z,10.69
2023-04-22T07:10:44.205Z,10.73
2023-04-22T07:12:46.095Z,10.64
2023-04-22T07:14:49.773Z,10.68
2023-04-22T07:16:51.613Z,10.66
2023-04-22T07:18:53.575Z,10.82
2023-04-22T07:20:56.810Z,10.83
2023-04-22T07:22:58.728Z,10.88
2023-04-22T07:25:00.731Z,10.88
2023-04-22T07:27:03.758Z,10.87
2023-04-22T07:29:05.789Z,10.92
2023-04-22T07:31:07.630Z,10.87
2023-04-22T07:33:09.551Z,11.00
2023-04-22T07:35:11.329Z,11.04
2023-04-22T07:37:13.174Z,11.01
2023-04-22T07:39:15.189Z,11.06
2023-04-22T07:41:17.024Z,11.15
2023-04-22T07:43:18.920Z,11.18
2023-04-22T07:45:20.855Z,10.91
2023-04-22T07:47:23.023Z,11.13
2023-04-22T07:49:24.904Z,11.27
2023-04-22T07:51:26.825Z,11.08
2023-04-22T07:53:28.704Z,11.19
2023-04-22T07:55:30.584Z,11.23
2023-04-22T07:57:38.624Z,11.22
2023-04-22T07:59:41.178Z,11.36
2023-04-22T08:01:43.310Z,11.44
2023-04-22T08:03:45.408Z,11.54
2023-04-22T08:05:47.600Z,11.57
2023-04-22T08:07:49.368Z,11.37
2023-04-22T08:09:53.621Z,11.35
2023-04-22T08:11:55.401Z,11.40
2023-04-22T08:13:57.313Z,11.48
2023-04-22T08:16:00.986Z,11.56
2023-04-22T08:18:02.864Z,11.47
2023-04-22T08:20:07.905Z,11.50
2023-04-22T08:22:12.416Z,11.56
2023-04-22T08:24:14.961Z,11.38
2023-04-22T08:26:17.414Z,11.47
2023-04-22T08:28:19.396Z,11.38
2023-04-22T08:30:21.469Z,11.42
2023-04-22T08:32:26.596Z,11.34
2023-04-22T08:34:29.187Z,11.39
2023-04-22T08:36:31.886Z,11.44
2023-04-22T08:38:33.742Z,11.59
2023-04-22T08:40:36.024Z,11.60
2023-04-22T08:42:38.106Z,11.64
2023-04-22T08:44:40.398Z,11.78
2023-04-22T08:46:47.464Z,11.53
2023-04-22T08:48:50.285Z,11.66
2023-04-22T08:50:53.928Z,11.62
2023-04-22T08:52:55.743Z,11.58
2023-04-22T08:54:57.627Z,11.76
2023-04-22T08:57:02.647Z,11.71
2023-04-22T08:59:04.894Z,11.95
2023-04-22T09:01:08.712Z,12.02
2023-04-22T09:03:12.095Z,12.15
2023-04-22T09:05:18.688Z,12.01
2023-04-22T09:07:27.960Z,12.15
2023-04-22T09:09:32.228Z,12.24
2023-04-22T09:11:36.056Z,12.35
2023-04-22T09:13:38.522Z,12.31
2023-04-22T09:15:40.650Z,12.40
2023-04-22T09:17:43.913Z,12.37
2023-04-22T09:19:46.241Z,12.26
2023-04-22T09:21:50.846Z,12.43
2023-04-22T09:23:55.912Z,12.42
2023-04-22T09:25:58.380Z,12.48
2023-04-22T09:28:00.258Z,12.61
2023-04-22T09:30:02.237Z,12.75
2023-04-22T09:32:11.516Z,12.79
2023-04-22T09:34:13.935Z,12.89
2023-04-22T09:36:16.392Z,13.07
2023-04-22T09:38:18.285Z,13.10
2023-04-22T09:40:20.340Z,13.21
2023-04-22T09:42:22.485Z,13.23
2023-04-22T09:44:27.841Z,13.19
2023-04-22T09:46:31.992Z,13.29
2023-04-22T09:48:34.041Z,13.24
2023-04-22T09:50:37.315Z,13.37
2023-04-22T09:52:39.229Z,13.26
2023-04-22T09:54:50.276Z,13.31
2023-04-22T09:56:53.926Z,13.47
2023-04-22T09:58:56.430Z,13.35
2023-04-22T10:00:59.649Z,13.46
2023-04-22T10:03:01.792Z,13.55
2023-04-22T10:05:04.239Z,13.55
2023-04-22T10:07:06.706Z,13.78
2023-04-22T10:09:09.917Z,13.88
2023-04-22T10:11:13.250Z,13.80
2023-04-22T10:13:15.194Z,13.81
2023-04-22T10:15:17.050Z,13.83
2023-04-22T10:17:20.473Z,14.03
2023-04-22T10:19:24.363Z,13.97
2023-04-22T10:21:28.115Z,14.00
2023-04-22T10:23:34.194Z,14.02
2023-04-22T10:25:36.168Z,13.99
2023-04-22T10:27:39.562Z,14.25
2023-04-22T10:29:43.693Z,14.42
2023-04-22T10:31:53.749Z,14.46
2023-04-22T10:34:16.435Z,14.64
2023-04-22T10:36:20.813Z,14.78
2023-04-22T10:38:22.906Z,14.92
2023-04-22T10:40:27.531Z,14.96
2023-04-22T10:42:29.762Z,14.99
2023-04-22T10:44:47.186Z,15.30
2023-04-22T10:46:53.074Z,15.41
2023-04-22T10:48:57.312Z,15.55
2023-04-22T10:50:59.392Z,15.64
2023-04-22T10:53:30.518Z,15.88
2023-04-22T10:55:52.659Z,15.98
2023-04-22T10:57:54.743Z,16.16
2023-04-22T11:00:01.127Z,16.27
2023-04-22T11:02:05.742Z,16.02
2023-04-22T11:04:21.041Z,16.32
2023-04-22T11:06:26.671Z,16.30
2023-04-22T11:08:28.780Z,16.41
2023-04-22T11:10:44.068Z,16.61
2023-04-22T11:12:46.902Z,16.74
2023-04-22T11:14:50.398Z,16.77
2023-04-22T11:16:52.758Z,16.68
2023-04-22T11:18:56.168Z,16.71
2023-04-22T11:21:06.619Z,16.68
2023-04-22T11:23:08.910Z,16.34
2023-04-22T11:25:11.586Z,16.01
2023-04-22T11:27:13.665Z,15.93
2023-04-22T11:29:15.624Z,16.24
2023-04-22T11:31:17.795Z,15.98
2023-04-22T11:33:20.329Z,16.00
2023-04-22T11:35:27.286Z,15.87
2023-04-22T11:37:29.800Z,15.55
2023-04-22T11:39:36.524Z,15.48
2023-04-22T11:41:41.822Z,15.46
2023-04-22T11:43:48.342Z,15.49
2023-04-22T11:45:50.539Z,15.59
2023-04-22T11:47:53.590Z,15.55
2023-04-22T11:50:02.121Z,15.65
2023-04-22T11:52:06.666Z,15.63
2023-04-22T11:54:10.111Z,15.48
2023-04-22T11:56:13.337Z,15.47
2023-04-22T11:58:20.027Z,15.69
2023-04-22T12:00:23.412Z,15.57
2023-04-22T12:02:25.666Z,15.85
2023-04-22T12:04:27.890Z,16.00
2023-04-22T12:06:32.675Z,16.09
2023-04-22T12:08:40.168Z,16.21
2023-04-22T12:10:59.024Z,16.35
2023-04-22T12:13:02.276Z,16.59
2023-04-22T12:15:12.693Z,16.61
2023-04-22T12:17:16.600Z,16.70
2023-04-22T12:19:26.289Z,16.71
2023-04-22T12:21:32.361Z,16.71
2023-04-22T12:23:46.076Z,16.96
2023-04-22T12:25:48.291Z,16.79
2023-04-22T12:27:50.202Z,17.15
2023-04-22T12:29:54.319Z,17.30
2023-04-22T12:31:56.371Z,17.53
2023-04-22T12:33:58.385Z,17.78
2023-04-22T12:36:00.699Z,17.68
2023-04-22T12:38:02.796Z,17.38
2023-04-22T12:40:08.191Z,17.69
2023-04-22T12:42:10.454Z,17.98
2023-04-22T12:44:12.690Z,18.15
2023-04-22T12:46:14.780Z,18.21
2023-04-22T12:48:17.054Z,18.18
2023-04-22T12:50:18.976Z,18.31
2023-04-22T12:52:21.282Z,18.00
2023-04-22T12:54:23.296Z,18.36
2023-04-22T12:56:27.779Z,17.89
2023-04-22T12:58:29.743Z,17.70
2023-04-22T13:00:31.835Z,17.40
2023-04-22T13:02:33.827Z,17.39
2023-04-22T13:04:35.800Z,17.37
2023-04-22T13:06:38.741Z,17.51
2023-04-22T13:08:40.713Z,17.60
2023-04-22T13:10:43.058Z,17.60
2023-04-22T13:12:45.018Z,17.46
2023-04-22T13:14:46.997Z,17.28
2023-04-22T13:16:48.998Z,17.03
2023-04-22T13:18:51.272Z,16.73
2023-04-22T13:20:55.279Z,16.68
2023-04-22T13:22:57.303Z,16.84
2023-04-22T13:24:59.237Z,16.68
2023-04-22T13:27:01.725Z,16.48
2023-04-22T13:29:04.016Z,16.45
2023-04-22T13:31:06.432Z,15.93
2023-04-22T13:33:08.458Z,15.83
2023-04-22T13:35:10.621Z,15.96
2023-04-22T13:37:15.168Z,15.86
2023-04-22T13:39:18.059Z,15.89
2023-04-22T13:41:19.915Z,15.82
2023-04-22T13:43:21.863Z,15.96
2023-04-22T13:45:23.778Z,15.85
2023-04-22T13:47:25.788Z,15.98
2023-04-22T13:49:28.097Z,15.87
2023-04-22T13:51:33.261Z,15.90
2023-04-22T13:53:35.318Z,15.66
2023-04-22T13:55:38.026Z,15.67
2023-04-22T13:57:39.948Z,15.70
2023-04-22T13:59:42.398Z,15.59
2023-04-22T14:01:44.619Z,15.70
2023-04-22T14:03:47.919Z,15.42
2023-04-22T14:05:49.838Z,15.63
2023-04-22T14:07:55.239Z,14.95
2023-04-22T14:09:59.582Z,15.14
2023-04-22T14:12:04.004Z,15.06
2023-04-22T14:14:06.216Z,14.99
2023-04-22T14:16:09.937Z,15.08
2023-04-22T14:18:12.899Z,15.15
2023-04-22T14:20:15.200Z,14.70
2023-04-22T14:22:20.569Z,15.07
2023-04-22T14:24:24.544Z,15.18
2023-04-22T14:26:26.799Z,14.90
2023-04-22T14:28:28.819Z,14.87
2023-04-22T14:30:30.764Z,14.83
2023-04-22T14:32:33.092Z,14.90
2023-04-22T14:34:35.127Z,14.61
2023-04-22T14:36:37.079Z,14.75
2023-04-22T14:38:39.134Z,14.83
2023-04-22T14:40:41.205Z,14.79
2023-04-22T14:42:48.171Z,14.71
2023-04-22T14:44:50.224Z,14.84
2023-04-22T14:46:52.109Z,14.69
2023-04-22T14:48:54.002Z,14.46
2023-04-22T14:50:56.159Z,14.61
2023-04-22T14:52:58.317Z,14.72
2023-04-22T14:55:05.700Z,14.90
2023-04-22T14:57:14.058Z,14.86
2023-04-22T14:59:16.066Z,15.18
2023-04-22T15:01:21.597Z,15.21
2023-04-22T15:03:23.825Z,15.20
2023-04-22T15:05:26.085Z,15.47
2023-04-22T15:07:28.055Z,15.77
2023-04-22T15:09:30.029Z,15.84
2023-04-22T15:11:31.857Z,16.08
2023-04-22T15:13:33.837Z,16.34
2023-04-22T15:15:36.055Z,16.51
2023-04-22T15:17:38.009Z,16.97
2023-04-22T15:19:40.212Z,17.25
2023-04-22T15:21:42.345Z,17.66
2023-04-22T15:23:44.404Z,17.93
2023-04-22T15:25:46.655Z,18.17
2023-04-22T15:27:48.816Z,18.08
2023-04-22T15:29:51.621Z,17.88
2023-04-22T15:31:54.609Z,18.14
2023-04-22T15:33:56.863Z,18.15
2023-04-22T15:35:58.745Z,18.34
2023-04-22T15:38:01.560Z,18.28
2023-04-22T15:40:06.040Z,18.44
2023-04-22T15:42:07.860Z,18.28
2023-04-22T15:44:12.400Z,18.44
2023-04-22T15:46:15.070Z,18.70
2023-04-22T15:48:17.055Z,18.41
2023-04-22T15:50:19.596Z,18.17
2023-04-22T15:52:21.567Z,18.24
2023-04-22T15:54:23.639Z,17.50
2023-04-22T15:56:26.234Z,17.36
2023-04-22T15:58:30.580Z,16.89
2023-04-22T16:00:34.900Z,17.00
2023-04-22T16:02:37.358Z,16.83
2023-04-22T16:04:39.760Z,16.53
2023-04-22T16:06:44.808Z,16.85
2023-04-22T16:08:46.930Z,16.82
2023-04-22T16:10:49.218Z,17.11
2023-04-22T16:12:51.182Z,17.20
2023-04-22T16:14:53.141Z,17.51
2023-04-22T16:16:55.110Z,17.46
2023-04-22T16:18:57.125Z,17.54
2023-04-22T16:20:59.982Z,17.55
2023-04-22T16:23:01.906Z,17.76
2023-04-22T16:25:04.404Z,17.71
2023-04-22T16:27:07.296Z,17.80
2023-04-22T16:29:09.293Z,18.12
2023-04-22T16:31:11.870Z,18.33
2023-04-22T16:33:15.102Z,18.18
2023-04-22T16:35:17.161Z,18.26
2023-04-22T16:37:19.138Z,18.22
2023-04-22T16:39:21.178Z,17.87
2023-04-22T16:41:23.238Z,17.77
2023-04-22T16:43:25.217Z,18.01
2023-04-22T16:45:27.338Z,18.10
2023-04-22T16:47:29.202Z,18.09
2023-04-22T16:49:31.450Z,18.23
2023-04-22T16:51:33.580Z,18.20
2023-04-22T16:53:36.510Z,18.01
2023-04-22T16:55:41.741Z,17.44
2023-04-22T16:57:47.820Z,17.69
2023-04-22T16:59:49.801Z,17.77
2023-04-22T17:01:52.171Z,17.83
2023-04-22T17:03:54.428Z,17.77
2023-04-22T17:05:56.660Z,17.70
2023-04-22T17:07:58.544Z,17.46
2023-04-22T17:10:00.505Z,17.43
2023-04-22T17:12:02.758Z,17.24
2023-04-22T17:14:04.900Z,16.79
2023-04-22T17:16:09.189Z,16.86
2023-04-22T17:18:15.124Z,16.76
2023-04-22T17:20:18.419Z,16.81
2023-04-22T17:22:20.361Z,16.68
2023-04-22T17:24:22.594Z,16.50
2023-04-22T17:26:25.339Z,16.53
2023-04-22T17:28:27.238Z,16.53
2023-04-22T17:30:29.120Z,16.25
2023-04-22T17:32:31.293Z,16.47
2023-04-22T17:34:36.404Z,16.23
2023-04-22T17:36:38.266Z,16.35
2023-04-22T17:38:41.289Z,16.15
2023-04-22T17:40:44.020Z,15.84
2023-04-22T17:42:46.575Z,16.08
2023-04-22T17:44:50.060Z,16.12
2023-04-22T17:46:52.182Z,16.10
2023-04-22T17:48:54.105Z,15.69
2023-04-22T17:50:56.240Z,15.66
2023-04-22T17:53:01.469Z,15.64
2023-04-22T17:55:03.460Z,15.56
2023-04-22T17:57:05.310Z,15.21
2023-04-22T17:59:07.277Z,15.28
2023-04-22T18:01:09.274Z,15.49
2023-04-22T18:03:11.348Z,15.52
2023-04-22T18:05:14.003Z,15.41
2023-04-22T18:07:16.002Z,15.37
2023-04-22T18:09:17.910Z,15.36
2023-04-22T18:11:23.068Z,15.33
2023-04-22T18:13:25.095Z,15.36
2023-04-22T18:15:26.978Z,15.38
2023-04-22T18:17:29.162Z,15.31
2023-04-22T18:19:31.086Z,15.35
2023-04-22T18:21:34.278Z,15.13
2023-04-22T18:23:36.120Z,15.14
2023-04-22T18:25:38.114Z,14.95
2023-04-22T18:27:40.024Z,14.81
2023-04-22T18:29:42.200Z,14.83
2023-04-22T18:31:44.629Z,14.79
2023-04-22T18:33:47.193Z,14.80
2023-04-22T18:35:49.036Z,14.56
2023-04-22T18:37:53.232Z,14.85
2023-04-22T18:39:55.341Z,14.75
2023-04-22T18:41:57.386Z,14.91
2023-04-22T18:43:59.456Z,14.88
2023-04-22T18:46:01.372Z,14.90
2023-04-22T18:48:03.491Z,15.00
2023-04-22T18:50:06.542Z,14.92
2023-04-22T18:52:09.098Z,14.89
2023-04-22T18:54:11.300Z,14.97
2023-04-22T18:56:13.306Z,14.84
2023-04-22T18:58:15.476Z,14.89
2023-04-22T19:00:17.993Z,14.58
2023-04-22T19:02:20.012Z,14.72
2023-04-22T19:04:22.146Z,14.57
2023-04-22T19:06:27.380Z,14.63
2023-04-22T19:08:29.380Z,14.71
2023-04-22T19:10:31.581Z,14.81
2023-04-22T19:12:33.740Z,14.44
2023-04-22T19:14:35.680Z,14.57
2023-04-22T19:16:37.765Z,14.59
2023-04-22T19:18:40.181Z,14.71
2023-04-22T19:20:41.999Z,14.58
2023-04-22T19:22:44.366Z,14.52
2023-04-22T19:24:46.457Z,14.43
2023-04-22T19:26:48.447Z,14.48
2023-04-22T19:28:50.544Z,14.49
2023-04-22T19:30:52.534Z,14.59
2023-04-22T19:32:55.123Z,14.55
2023-04-22T19:35:01.688Z,14.67
2023-04-22T19:37:05.840Z,14.64
2023-04-22T19:39:08.697Z,14.74
2023-04-22T19:41:11.733Z,14.69
2023-04-22T19:43:14.168Z,14.77
2023-04-22T19:45:16.349Z,14.76
2023-04-22T19:47:18.509Z,14.73
2023-04-22T19:49:21.321Z,14.69
2023-04-22T19:51:23.481Z,14.75
2023-04-22T19:53:25.746Z,14.53
2023-04-22T19:55:27.911Z,14.57
2023-04-22T19:57:30.146Z,14.61
2023-04-22T19:59:32.731Z,14.46
2023-04-22T20:01:35.454Z,14.35
2023-04-22T20:03:37.898Z,14.33
2023-04-22T20:05:40.367Z,14.28
2023-04-22T20:07:43.799Z,14.00
2023-04-22T20:09:46.808Z,14.22
2023-04-22T20:11:49.262Z,14.22
2023-04-22T20:13:51.647Z,14.06
2023-04-22T20:15:53.985Z,14.11
2023-04-22T20:17:56.202Z,14.09
2023-04-22T20:19:58.560Z,13.84
2023-04-22T20:22:01.245Z,13.99
2023-04-22T20:24:04.822Z,14.01
2023-04-22T20:26:10.124Z,14.11
2023-04-22T20:28:12.504Z,14.29
2023-04-22T20:30:14.845Z,14.32
2023-04-22T20:32:19.231Z,14.16
2023-04-22T20:34:21.469Z,14.03
2023-04-22T20:36:24.275Z,14.06
2023-04-22T20:38:31.195Z,14.02
2023-04-22T20:40:34.748Z,13.86
2023-04-22T20:42:37.053Z,14.01
2023-04-22T20:44:40.013Z,14.01
2023-04-22T20:46:42.220Z,13.75
2023-04-22T20:48:44.109Z,13.79
2023-04-22T20:50:46.384Z,14.02
2023-04-22T20:52:49.284Z,14.00
2023-04-22T20:54:55.444Z,13.64
2023-04-22T20:56:57.940Z,13.68
2023-04-22T20:58:59.823Z,13.78
2023-04-22T21:01:02.014Z,13.81
2023-04-22T21:03:09.180Z,13.84
2023-04-22T21:05:12.194Z,13.89
2023-04-22T21:07:16.931Z,13.64
2023-04-22T21:09:21.224Z,13.58
2023-04-22T21:11:23.623Z,13.64
2023-04-22T21:13:26.037Z,13.79
2023-04-22T21:15:28.313Z,13.76
2023-04-22T21:17:33.723Z,13.81
2023-04-22T21:19:36.354Z,13.52
2023-04-22T21:21:40.441Z,13.66
2023-04-22T21:23:42.850Z,13.59
2023-04-22T21:25:46.337Z,13.59
2023-04-22T21:27:48.768Z,13.55
2023-04-22T21:29:51.042Z,13.47
2023-04-22T21:32:07.262Z,13.54
2023-04-22T21:34:09.964Z,13.45
2023-04-22T21:36:11.991Z,13.21
2023-04-22T21:38:16.451Z,13.21
2023-04-22T21:40:21.865Z,13.33
2023-04-22T21:42:26.697Z,13.29
2023-04-22T21:44:28.554Z,13.01
2023-04-22T21:46:30.685Z,12.89
2023-04-22T21:48:32.582Z,12.79
2023-04-22T21:50:34.495Z,12.74
2023-04-22T21:52:36.455Z,12.80
2023-04-22T21:54:41.080Z,12.86
2023-04-22T21:56:43.336Z,13.02
2023-04-22T21:58:45.173Z,13.18
2023-04-22T22:00:47.035Z,12.80
2023-04-22T22:02:49.177Z,12.64
2023-04-22T22:04:51.360Z,12.86
2023-04-22T22:06:53.369Z,12.97
2023-04-22T22:08:57.498Z,13.06
2023-04-22T22:10:59.716Z,12.89
2023-04-22T22:13:01.661Z,12.96
2023-04-22T22:15:04.494Z,12.88
2023-04-22T22:17:09.821Z,13.11
2023-04-22T22:19:11.694Z,13.11
2023-04-22T22:21:13.496Z,13.22
2023-04-22T22:23:19.097Z,13.24
2023-04-22T22:25:21.098Z,13.07
2023-04-22T22:27:23.086Z,13.07
2023-04-22T22:29:24.906Z,13.10
2023-04-22T22:31:26.777Z,13.08
2023-04-22T22:33:29.649Z,13.05
2023-04-22T22:35:34.910Z,13.12
2023-04-22T22:37:37.195Z,13.13
2023-04-22T22:39:39.152Z,13.16
2023-04-22T22:41:43.206Z,13.08
2023-04-22T22:43:45.779Z,12.95
2023-04-22T22:45:47.826Z,12.97
2023-04-22T22:47:50.149Z,12.99
2023-04-22T22:49:52.305Z,13.13
2023-04-22T22:51:54.156Z,13.11
2023-04-22T22:53:56.823Z,12.98
2023-04-22T22:55:58.636Z,12.81
2023-04-22T22:58:00.497Z,13.00
2023-04-22T23:00:02.406Z,13.04
2023-04-22T23:02:04.624Z,13.15
2023-04-22T23:04:07.435Z,13.12
2023-04-22T23:06:09.559Z,13.13
2023-04-22T23:08:12.518Z,13.06
2023-04-22T23:10:14.514Z,13.06
2023-04-22T23:12:16.295Z,12.93
2023-04-22T23:14:20.216Z,13.10
2023-04-22T23:16:22.282Z,13.17
2023-04-22T23:18:25.079Z,12.81
2023-04-22T23:20:27.600Z,12.78
2023-04-22T23:22:31.060Z,12.68
2023-04-22T23:24:33.740Z,12.92
2023-04-22T23:26:37.125Z,12.99
2023-04-22T23:28:39.322Z,13.14
2023-04-22T23:30:42.502Z,13.13
2023-04-22T23:32:44.508Z,13.16
2023-04-22T23:34:49.718Z,13.13
2023-04-22T23:36:53.349Z,13.05
2023-04-22T23:38:58.139Z,13.01
2023-04-22T23:40:59.979Z,13.19
2023-04-22T23:43:01.774Z,13.14
2023-04-22T23:45:04.044Z,13.10
2023-04-22T23:47:06.019Z,13.04
2023-04-22T23:49:07.869Z,13.00
2023-04-22T23:51:09.638Z,13.07
2023-04-22T23:53:11.486Z,13.15
2023-04-22T23:55:16.099Z,12.96
2023-04-22T23:57:18.624Z,13.10
2023-04-22T23:59:20.760Z,13.17
